Main page
METAR-TAF:

METAR-TAF

Airports :

Funafuti International Airport

Funafuti, Tuvalu

latitude: 08-31S, longitude: 179-13E, elevation: 1 m

Current weather observation

The report was made 31 minutes ago, at 05:00 UTC
Wind 4 kt from the South/Southeast
Temperature 31°C
Humidity 75%
Pressure 1007 hPa
Visibility 10 km or more
Scattered clouds at a height of 1800 ft, Towering cumulus.
Broken clouds at a height of 30000 ft

METAR: NGFU 240500Z 15004KT 9999 SCT018TCU BKN300 31/26 Q1007

Time: 17:31 (05:31 UTC)

Forecast

The report was made 5 hours and 44 minutes ago, at 23:47 UTC
Forecast valid from 24 at 00 UTC to 24 at 24 UTC
Wind 8 kt from the East/Southeast
Visibility 10 km or more
Scattered clouds at a height of 1900 ft
Broken clouds at a height of 10000 ft

TAF: NGFU 232347Z 2400/2424 12008KT 9999 SCT019 BKN100

Weather observations and forecasts of more than 4000 airports (METAR and TAF reports).

The available stations are represented by yellow and red dots on the map.

Hover mouse over dot to see the name of the station.

Then click to see weather observations and forecasts.

To change the map : click on the green buttons with a black cross to zoom in, on the green button with a dash to zoom out, or on the green arrows for adjacent maps.


METAR-TAF: